CLT weather

Charlotte Douglas International Airport
Charlotte, North Carolina, United States

Public forecast

Using degrees Fahrenheit for public forecast. Weather courtesy of forecast.io.

Current aviation weather report (METAR) for Charlotte Douglas International Airport

Retrieved 2020/01/23 09:52 UTC (42 minutes ago):

KCLT 230952Z 01006KT 10SM OVC200 M01/M09 A3033 RMK AO2 SLP274 T10061089

Aviation forecast (TAF) for Charlotte Douglas International Airport

Retrieved 2020/01/23 06:30 UTC (4 hours ago):

TAF KCLT 230528Z 2306/2412 02005KT P6SM BKN250 FM240000 04004KT P6SM OVC040 FM240500 05005KT P6SM OVC015 FM240600 05005KT P6SM OVC008 PROB30 2407/2411 5SM -SHRA BR OVC005 FM241100 07005KT 3SM -SHRA BR OVC005